Time;durP1;ratioP1;P1;durP2;ratioP2;P2;SDS_P1;SDS_P2;PMS_P1;PMS_P2;Temp;Humidity;BMP_temperature;BMP_pressure;BME280_temperature;BME280_humidity;BME280_pressure;Samples;Min_cycle;Max_cycle;Signal;HPM_P1;HPM_P2
2023/10/27 00:02:12;;;;;;;12.87;6.20;;;;;;;-144.30;100.00;85364.63;5033288;28;20255;-88
2023/10/27 00:04:39;;;;;;;13.73;6.53;;;;;;;-144.30;100.00;85497.81;5033045;28;20280;-87
2023/10/27 00:07:06;;;;;;;13.20;6.57;;;;;;;-144.30;100.00;85742.34;5033311;28;20197;-87
2023/10/27 00:09:37;;;;;;;14.73;6.30;;;;;;;-144.30;100.00;85772.19;5030952;28;20247;-81
2023/10/27 00:12:04;;;;;;;15.67;6.47;;;;;;;-144.30;100.00;85802.00;5030396;28;20284;-80
2023/10/27 00:14:31;;;;;;;15.20;7.10;;;;;;;-144.30;100.00;85772.19;5032572;28;20193;-81
2023/10/27 00:16:59;;;;;;;10.63;5.93;;;;;;;-144.30;100.00;85813.94;5034064;28;20204;-81
2023/10/27 00:19:27;;;;;;;7.80;5.67;;;;;;;-144.30;100.00;85813.94;5032910;28;20247;-82
2023/10/27 00:21:54;;;;;;;8.53;6.17;;;;;;;-144.30;100.00;85790.06;5031075;28;20248;-82
2023/10/27 00:24:21;;;;;;;13.03;5.90;;;;;;;-144.30;100.00;85813.94;5031181;28;20645;-80
2023/10/27 00:26:49;;;;;;;10.17;5.90;;;;;;;-144.30;100.00;85786.09;5034040;28;20193;-81
2023/10/27 00:29:16;;;;;;;15.63;6.00;;;;;;;-144.30;100.00;85754.28;5030522;28;20320;-81
2023/10/27 00:31:43;;;;;;;11.30;6.53;;;;;;;-144.30;100.00;85831.81;5030395;28;20193;-80
2023/10/27 00:34:10;;;;;;;10.70;5.93;;;;;;;-144.30;100.00;85805.97;5030551;28;20669;-80
2023/10/27 00:36:37;;;;;;;7.67;5.77;;;;;;;-144.30;100.00;85784.09;5030926;28;20239;-80
2023/10/27 00:39:07;;;;;;;10.00;5.53;;;;;;;-144.30;100.00;85786.09;5030895;28;20197;-81
2023/10/27 00:41:36;;;;;;;7.20;5.97;;;;;;;-144.30;100.00;85805.97;5030704;28;20298;-81
2023/10/27 00:44:05;;;;;;;11.27;6.37;;;;;;;-144.30;100.00;85794.03;5029951;28;20204;-82
2023/10/27 00:46:32;;;;;;;10.07;6.17;;;;;;;-144.30;100.00;85668.78;5030417;28;20557;-80
2023/10/27 00:49:00;;;;;;;15.37;5.97;;;;;;;-144.30;100.00;85794.03;5030071;28;20193;-80
2023/10/27 00:51:27;;;;;;;9.77;6.87;;;;;;;-144.30;100.00;85776.16;5030590;28;20583;-80
2023/10/27 00:53:59;;;;;;;10.93;6.07;;;;;;;-144.30;100.00;85805.97;5030212;28;20314;-81
2023/10/27 00:56:28;;;;;;;13.43;7.03;;;;;;;-144.30;100.00;86259.31;5030273;28;20193;-82
2023/10/27 00:58:56;;;;;;;13.97;7.63;;;;;;;-144.30;100.00;85774.16;5030475;28;20320;-81
2023/10/27 01:01:24;;;;;;;14.23;7.40;;;;;;;-144.30;100.00;85811.94;5030648;28;20640;-81
2023/10/27 01:03:51;;;;;;;12.23;7.20;;;;;;;-144.30;100.00;85784.09;5030878;28;20316;-80
2023/10/27 01:06:18;;;;;;;16.83;8.77;;;;;;;-144.30;100.00;85776.16;5030151;28;20201;-80
2023/10/27 01:08:45;;;;;;;15.53;7.93;;;;;;;-144.30;100.00;85772.19;5029286;28;20239;-80
2023/10/27 01:11:12;;;;;;;12.13;7.97;;;;;;;-144.30;100.00;85712.53;5029896;28;20645;-80
2023/10/27 01:13:39;;;;;;;10.37;7.67;;;;;;;-144.30;100.00;85776.16;5030489;28;20213;-80
2023/10/27 01:16:07;;;;;;;9.97;7.87;;;;;;;-144.30;100.00;85811.94;5030130;28;20197;-81
2023/10/27 01:18:35;;;;;;;15.73;8.57;;;;;;;-144.30;100.00;85825.84;5029850;28;20205;-80
2023/10/27 01:21:03;;;;;;;19.07;8.73;;;;;;;-144.30;100.00;85794.03;5029818;28;20712;-80
2023/10/27 01:23:32;;;;;;;12.27;8.50;;;;;;;-144.30;100.00;85788.09;5029834;28;20197;-80
2023/10/27 01:25:59;;;;;;;12.50;8.40;;;;;;;-144.30;100.00;85817.91;5029777;28;20224;-81
2023/10/27 01:28:26;;;;;;;13.83;7.90;;;;;;;-144.30;100.00;85813.94;5030456;28;20236;-81
2023/10/27 01:30:52;;;;;;;18.33;8.30;;;;;;;-144.30;100.00;85815.91;5031199;28;20255;-80
2023/10/27 01:33:19;;;;;;;10.73;6.33;;;;;;;-144.30;100.00;85223.47;5033881;28;20229;-80
2023/10/27 01:35:46;;;;;;;12.53;7.53;;;;;;;-144.30;100.00;85718.50;5033735;28;20567;-80
2023/10/27 01:38:13;;;;;;;13.93;6.70;;;;;;;-144.30;100.00;85829.84;5033645;28;20197;-80
2023/10/27 01:40:43;;;;;;;16.80;6.87;;;;;;;-144.30;100.00;86167.84;5033916;28;20201;-80
2023/10/27 01:43:10;;;;;;;14.93;7.10;;;;;;;-144.30;100.00;85843.75;5034684;28;20625;-86
2023/10/27 01:45:37;;;;;;;15.60;6.73;;;;;;;-144.30;100.00;85786.09;5034947;28;20203;-87
2023/10/27 01:48:04;;;;;;;13.90;6.63;;;;;;;-144.30;100.00;85849.72;5034953;28;20197;-87
2023/10/27 01:50:31;;;;;;;14.63;7.03;;;;;;;-144.30;100.00;85861.63;5033755;28;20221;-87
2023/10/27 01:52:57;;;;;;;11.17;6.23;;;;;;;-144.30;100.00;85770.19;5035405;28;20618;-86
2023/10/27 01:55:24;;;;;;;17.60;6.53;;;;;;;-144.30;100.00;85782.13;5034994;28;20279;-87
2023/10/27 01:57:53;;;;;;;14.77;7.13;;;;;;;-144.30;100.00;85853.69;5034573;28;20220;-88
2023/10/27 02:00:20;;;;;;;12.67;6.43;;;;;;;-144.30;100.00;85859.66;5034458;28;20208;-87
2023/10/27 02:02:47;;;;;;;19.57;6.50;;;;;;;-144.30;100.00;85805.97;5034068;28;20584;-87
2023/10/27 02:05:14;;;;;;;14.97;7.20;;;;;;;-144.30;100.00;85857.66;5033200;28;20193;-80
2023/10/27 02:07:41;;;;;;;12.43;6.67;;;;;;;-144.30;100.00;85829.84;5033404;28;20193;-80
2023/10/27 02:10:09;;;;;;;11.43;6.77;;;;;;;-144.30;100.00;85817.91;5032662;28;20263;-81
2023/10/27 02:12:36;;;;;;;14.80;7.70;;;;;;;-144.30;100.00;85861.63;5033021;28;20245;-80
2023/10/27 02:15:05;;;;;;;12.83;7.63;;;;;;;-144.30;100.00;85879.53;5032495;28;20207;-80
2023/10/27 02:17:32;;;;;;;15.70;7.73;;;;;;;-144.30;100.00;85841.75;5032624;28;20204;-80
2023/10/27 02:19:59;;;;;;;24.63;8.73;;;;;;;-144.30;100.00;85849.72;5032570;28;20235;-81
2023/10/27 02:22:26;;;;;;;22.80;7.83;;;;;;;-144.30;100.00;85837.78;5032585;28;20193;-80
2023/10/27 02:24:53;;;;;;;15.57;8.07;;;;;;;-144.30;100.00;85790.06;5032710;28;20197;-81
2023/10/27 02:27:20;;;;;;;18.53;7.83;;;;;;;-144.30;100.00;85865.63;5033761;28;20602;-81
2023/10/27 02:29:47;;;;;;;16.37;8.30;;;;;;;-144.30;100.00;85809.94;5033530;28;20212;-81
2023/10/27 02:32:15;;;;;;;13.73;8.43;;;;;;;-144.30;100.00;85595.22;5032537;28;20296;-80
2023/10/27 02:34:42;;;;;;;16.40;8.00;;;;;;;-144.30;100.00;85857.66;5032595;28;20221;-79
2023/10/27 02:37:09;;;;;;;14.43;8.13;;;;;;;-144.30;100.00;85835.78;5032454;28;20205;-80
2023/10/27 02:39:36;;;;;;;17.03;8.13;;;;;;;-144.30;100.00;85841.75;5032588;28;20285;-80
2023/10/27 02:42:03;;;;;;;21.67;8.13;;;;;;;-144.30;100.00;85865.63;5032378;28;20209;-80
2023/10/27 02:44:30;;;;;;;13.90;7.73;;;;;;;-144.30;100.00;85720.47;5033135;28;20201;-81
2023/10/27 02:46:57;;;;;;;20.23;8.73;;;;;;;-144.30;100.00;85736.38;5033276;28;20339;-81
2023/10/27 02:49:25;;;;;;;18.10;8.60;;;;;;;-144.30;100.00;85833.81;5033283;28;20205;-81
2023/10/27 02:51:52;;;;;;;16.63;8.63;;;;;;;-144.30;100.00;85802.00;5033139;28;20721;-81
2023/10/27 02:54:19;;;;;;;17.00;8.47;;;;;;;-144.30;100.00;85813.94;5032806;28;20303;-88
2023/10/27 02:56:45;;;;;;;20.53;8.80;;;;;;;-144.30;100.00;85798.03;5032689;28;20206;-86
2023/10/27 02:59:12;;;;;;;20.83;8.73;;;;;;;-144.30;100.00;85831.81;5033392;28;20193;-86
2023/10/27 03:01:39;;;;;;;19.40;8.73;;;;;;;-144.30;100.00;85849.72;5034875;28;20197;-85
2023/10/27 03:04:06;;;;;;;20.47;8.90;;;;;;;-144.30;100.00;85879.53;5033673;28;20582;-82
2023/10/27 03:06:35;;;;;;;15.87;9.00;;;;;;;-144.30;100.00;85901.41;5033526;28;20201;-81
2023/10/27 03:09:02;;;;;;;20.57;9.13;;;;;;;-144.30;100.00;85869.59;5031399;28;20232;-82
2023/10/27 03:11:29;;;;;;;14.17;8.17;;;;;;;-144.30;100.00;85845.75;5031877;28;20198;-82
2023/10/27 03:13:56;;;;;;;17.67;8.83;;;;;;;-144.30;100.00;85835.78;5031871;28;20221;-81
2023/10/27 03:16:23;;;;;;;15.83;8.43;;;;;;;-144.30;100.00;85865.63;5031764;28;20197;-82
2023/10/27 03:18:50;;;;;;;16.40;8.80;;;;;;;-144.30;100.00;85805.97;5032554;28;20279;-81
2023/10/27 03:21:17;;;;;;;20.83;8.70;;;;;;;-144.30;100.00;85853.69;5031624;28;20232;-80
2023/10/27 03:23:45;;;;;;;15.53;8.13;;;;;;;-144.30;100.00;85798.03;5031499;28;20197;-82
2023/10/27 03:26:12;;;;;;;18.47;9.43;;;;;;;-144.30;100.00;85722.47;5033444;28;20208;-82
2023/10/27 03:28:42;;;;;;;21.07;8.67;;;;;;;-144.30;99.93;85803.97;5032394;28;20197;-82
2023/10/27 03:31:09;;;;;;;22.97;9.53;;;;;;;-144.30;99.78;85815.91;5032013;28;20212;-81
2023/10/27 03:33:36;;;;;;;20.77;9.33;;;;;;;-144.30;99.74;85811.94;5031066;28;20263;-81
2023/10/27 03:36:03;;;;;;;19.27;9.10;;;;;;;-144.30;99.67;85501.78;5031592;28;20283;-80
2023/10/27 03:38:30;;;;;;;16.00;8.33;;;;;;;-144.30;99.30;85798.03;5032466;28;20198;-82
2023/10/27 03:40:59;;;;;;;16.83;8.83;;;;;;;-144.30;98.98;85708.56;5034495;28;20201;-85
2023/10/27 03:43:25;;;;;;;13.33;8.60;;;;;;;-144.30;99.44;85833.81;5033666;28;20204;-83
2023/10/27 03:45:52;;;;;;;23.67;9.40;;;;;;;-144.30;99.71;85809.94;5031736;28;20229;-81
2023/10/27 03:48:19;;;;;;;11.63;8.57;;;;;;;-144.30;99.86;85817.91;5029913;28;20251;-82
2023/10/27 03:50:46;;;;;;;28.80;9.10;;;;;;;-144.30;99.41;85786.09;5031039;28;20205;-80
2023/10/27 03:53:14;;;;;;;17.93;8.60;;;;;;;-144.30;98.85;85666.81;5032207;28;20689;-80
2023/10/27 03:55:40;;;;;;;23.50;9.10;;;;;;;-144.30;99.28;85786.09;5032121;28;20657;-83
2023/10/27 03:58:15;;;;;;;13.83;8.93;;;;;;;-144.30;99.36;85837.78;5033064;28;20203;-81
2023/10/27 04:00:42;;;;;;;19.80;8.63;;;;;;;-144.30;99.35;85809.94;5031145;28;20284;-81
2023/10/27 04:03:10;;;;;;;16.67;8.63;;;;;;;-144.30;99.37;85774.16;5031066;28;20252;-80
2023/10/27 04:05:37;;;;;;;14.23;7.90;;;;;;;-144.30;99.59;85754.28;5030529;28;20200;-82
2023/10/27 04:08:04;;;;;;;17.37;8.40;;;;;;;-144.30;99.05;85505.78;5031350;28;20201;-83
2023/10/27 04:10:32;;;;;;;17.93;7.70;;;;;;;-144.30;98.58;85821.88;5032187;28;20197;-80
2023/10/27 04:12:59;;;;;;;20.73;9.03;;;;;;;-144.30;98.20;85758.25;5018462;28;20206;-81
2023/10/27 04:15:27;;;;;;;20.43;9.27;;;;;;;-144.30;98.89;85829.84;5011465;28;20251;-81
2023/10/27 04:17:54;;;;;;;20.10;8.73;;;;;;;-144.30;98.76;85980.94;5017011;28;20807;-82
2023/10/27 04:20:21;;;;;;;21.33;9.53;;;;;;;-144.30;98.99;85813.94;5030036;28;20212;-82
2023/10/27 04:22:48;;;;;;;20.67;9.37;;;;;;;-144.30;99.15;86285.16;5030618;28;20200;-82
2023/10/27 04:25:15;;;;;;;14.07;8.80;;;;;;;-144.30;99.40;85766.22;5030578;28;20200;-83
2023/10/27 04:27:42;;;;;;;20.47;8.67;;;;;;;-144.30;98.98;85835.78;5030415;28;20193;-81
2023/10/27 04:30:13;;;;;;;17.23;8.60;;;;;;;-144.30;99.27;85815.91;5030530;28;20412;-81
2023/10/27 04:32:42;;;;;;;15.83;8.77;;;;;;;-144.30;98.82;85831.81;5032054;28;20225;-82
2023/10/27 04:35:09;;;;;;;16.37;9.53;;;;;;;-144.30;98.90;85849.72;5029995;28;20250;-80
2023/10/27 04:37:36;;;;;;;26.50;9.80;;;;;;;-144.30;99.12;85845.75;5030396;28;20910;-76
2023/10/27 04:40:03;;;;;;;24.47;9.30;;;;;;;-144.30;99.73;85885.50;5030083;28;20197;-77
2023/10/27 04:42:31;;;;;;;19.33;9.40;;;;;;;-144.30;99.95;85821.88;5030689;28;20208;-77
2023/10/27 04:44:58;;;;;;;29.37;11.80;;;;;;;-144.30;99.95;85839.78;5029484;28;20691;-78
2023/10/27 04:47:24;;;;;;;21.97;9.97;;;;;;;-144.30;99.97;85772.19;5028701;28;20587;-75
2023/10/27 04:49:53;;;;;;;24.00;10.93;;;;;;;-144.30;100.00;85845.75;5028403;28;20197;-74
2023/10/27 04:52:20;;;;;;;24.70;10.50;;;;;;;-144.30;99.94;85758.25;5029372;28;20216;-76
2023/10/27 04:54:47;;;;;;;27.30;10.57;;;;;;;-144.30;99.66;85841.75;5029090;28;20227;-78
2023/10/27 04:57:14;;;;;;;26.57;10.13;;;;;;;-144.30;99.45;85833.81;5029988;28;20203;-78
2023/10/27 04:59:41;;;;;;;24.10;10.90;;;;;;;-144.30;99.98;85833.81;5030461;28;20220;-76
2023/10/27 05:02:08;;;;;;;27.40;11.17;;;;;;;-144.30;100.00;85819.88;5030089;28;20197;-76
2023/10/27 05:04:35;;;;;;;22.03;11.43;;;;;;;-144.30;100.00;85865.63;5030774;28;20692;-79
2023/10/27 05:07:05;;;;;;;34.43;11.77;;;;;;;-144.30;100.00;85885.50;5034915;28;20207;-79
2023/10/27 05:09:33;;;;;;;20.73;11.63;;;;;;;-144.30;100.00;85805.97;5034071;28;20228;-76
2023/10/27 05:11:59;;;;;;;30.33;11.73;;;;;;;-144.30;99.66;85847.72;5033636;28;20208;-77
2023/10/27 05:14:26;;;;;;;22.03;11.50;;;;;;;-144.30;99.59;85805.97;5034509;28;20220;-77
2023/10/27 05:16:53;;;;;;;30.77;12.13;;;;;;;-144.30;99.21;85825.84;5033708;28;20239;-77
2023/10/27 05:19:20;;;;;;;30.27;13.00;;;;;;;-144.30;99.14;85788.09;5030310;28;20229;-78
2023/10/27 05:21:47;;;;;;;31.50;12.90;;;;;;;-144.30;98.62;85798.03;5049143;28;20209;-77
2023/10/27 05:24:15;;;;;;;26.20;13.57;;;;;;;-144.30;98.08;85811.94;5047815;28;20198;-77
2023/10/27 05:26:42;;;;;;;26.80;12.80;;;;;;;-144.30;98.13;85792.06;5037401;28;20199;-78
2023/10/27 05:29:10;;;;;;;40.60;14.33;;;;;;;-144.30;97.49;85807.97;5039408;28;20665;-78
2023/10/27 05:31:37;;;;;;;40.20;14.83;;;;;;;-144.30;97.11;85742.34;5033066;28;20201;-78
2023/10/27 05:34:04;;;;;;;35.63;15.23;;;;;;;-144.30;97.45;85794.03;5038038;28;20632;-77
2023/10/27 05:36:30;;;;;;;42.30;17.77;;;;;;;-144.30;97.41;85803.97;5031133;28;20235;-78
2023/10/27 05:38:57;;;;;;;40.60;17.70;;;;;;;-144.30;96.85;85790.06;5029158;28;20293;-77
2023/10/27 05:41:25;;;;;;;31.97;17.23;;;;;;;-144.30;96.73;85627.03;5033060;28;20211;-77
2023/10/27 05:43:54;;;;;;;39.77;17.53;;;;;;;-144.30;95.57;85706.56;5032738;28;20201;-77
2023/10/27 05:46:21;;;;;;;42.20;19.80;;;;;;;-144.30;93.66;85583.31;5033343;28;20661;-78
2023/10/27 05:48:49;;;;;;;40.33;16.93;;;;;;;-144.30;88.87;85418.31;5034240;28;20193;-79
2023/10/27 05:51:17;;;;;;;34.17;17.40;;;;;;;-144.30;83.00;85165.84;5032994;28;20197;-78
2023/10/27 05:53:44;;;;;;;43.13;17.45;;;;;;;-144.30;79.56;85203.59;5033000;28;20684;-78
2023/10/27 05:56:11;;;;;;;34.67;16.63;;;;;;;-144.30;77.67;85106.22;5033267;28;20208;-77
2023/10/27 05:58:39;;;;;;;36.63;16.52;;;;;;;-144.30;76.10;85126.09;5032848;28;20217;-73
2023/10/27 06:01:06;;;;;;;32.88;14.55;;;;;;;-144.30;77.04;85179.75;5032393;28;20211;-78
2023/10/27 06:03:33;;;;;;;29.65;13.70;;;;;;;-144.30;78.42;85889.47;5032865;28;20578;-78
2023/10/27 06:06:00;;;;;;;36.13;14.63;;;;;;;-144.30;79.94;85277.16;5032490;28;20204;-77
2023/10/27 06:08:27;;;;;;;38.65;16.48;;;;;;;-144.30;81.23;85815.91;5033062;28;20210;-77
2023/10/27 06:10:54;;;;;;;26.58;14.85;;;;;;;-144.30;82.62;85344.75;5033002;28;20201;-77
2023/10/27 06:13:21;;;;;;;28.65;13.02;;;;;;;-144.30;82.79;85279.16;5032638;28;20201;-78
2023/10/27 06:15:49;;;;;;;25.45;12.13;;;;;;;-144.30;80.61;85235.41;5032898;28;20232;-77
2023/10/27 06:18:16;;;;;;;25.67;12.68;;;;;;;-144.30;79.28;85187.69;5031789;28;20669;-78
2023/10/27 06:20:43;;;;;;;21.42;11.15;;;;;;;-144.30;79.68;85257.28;5032458;28;20189;-79
2023/10/27 06:23:10;;;;;;;22.15;11.75;;;;;;;-144.30;79.72;85275.16;5032032;28;20197;-76
2023/10/27 06:25:37;;;;;;;24.52;11.48;;;;;;;-144.30;81.02;85277.16;5032123;28;20240;-78
2023/10/27 06:28:04;;;;;;;25.60;11.52;;;;;;;-144.30;82.40;85356.69;5030728;28;20205;-78
2023/10/27 06:30:32;;;;;;;26.20;11.82;;;;;;;-144.30;82.40;85328.84;5029978;28;20198;-77
2023/10/27 06:33:01;;;;;;;26.40;11.68;;;;;;;-144.30;82.83;85340.78;5034862;28;20209;-78
2023/10/27 06:35:27;;;;;;;30.30;12.18;;;;;;;-144.30;82.89;85306.97;5027291;28;20693;-78
2023/10/27 06:37:54;;;;;;;29.70;13.30;;;;;;;-144.30;83.40;85287.09;5039562;28;20677;-77
2023/10/27 06:40:22;;;;;;;31.83;12.60;;;;;;;-144.30;83.51;85265.22;5043167;28;20201;-78
2023/10/27 06:42:49;;;;;;;28.85;12.75;;;;;;;-144.30;82.70;85233.44;5029931;28;20194;-78
2023/10/27 06:45:16;;;;;;;26.75;11.82;;;;;;;-144.30;82.15;85293.06;5030482;28;20202;-79
2023/10/27 06:47:43;;;;;;;24.75;10.98;;;;;;;-144.30;81.62;85271.19;5031952;28;20203;-80
2023/10/27 06:50:12;;;;;;;22.10;10.38;;;;;;;-144.30;80.99;85269.22;5031141;28;20308;-79
2023/10/27 06:52:38;;;;;;;25.20;10.57;;;;;;;-144.30;80.53;85271.19;5032205;28;20237;-79
2023/10/27 06:55:06;;;;;;;23.00;10.88;;;;;;;-144.30;80.40;85225.47;5031614;28;20295;-79
2023/10/27 06:57:33;;;;;;;22.33;12.05;;;;;;;-144.30;79.93;85221.50;5032155;28;20672;-77
2023/10/27 06:59:59;;;;;;;21.73;10.20;;;;;;;-144.30;79.72;85201.63;5031349;28;20193;-78
2023/10/27 07:02:26;;;;;;;23.20;11.82;;;;;;;-144.30;79.26;85201.63;5031271;28;20221;-77
2023/10/27 07:04:53;;;;;;;26.65;11.40;;;;;;;-144.30;80.43;85291.06;5031451;28;20284;-76
2023/10/27 07:07:22;;;;;;;28.52;12.10;;;;;;;-144.30;80.75;85263.25;5031169;28;20582;-77
2023/10/27 07:09:49;;;;;;;27.08;12.63;;;;;;;-144.30;80.88;85285.09;5029823;28;20193;-77
2023/10/27 07:12:15;;;;;;;28.58;14.00;;;;;;;-144.30;80.69;85273.19;5031287;28;20570;-77
2023/10/27 07:14:44;;;;;;;34.88;14.48;;;;;;;-144.30;81.26;85283.13;5029884;28;20217;-77
2023/10/27 07:17:11;;;;;;;35.22;14.52;;;;;;;-144.30;81.58;85291.06;5031058;28;20209;-77
2023/10/27 07:19:38;;;;;;;26.00;14.75;;;;;;;-144.30;81.88;85320.91;5030658;28;20575;-78
2023/10/27 07:22:04;;;;;;;39.65;18.13;;;;;;;-144.30;81.69;85305.00;5030808;28;20193;-77
2023/10/27 07:24:33;;;;;;;37.85;17.25;;;;;;;-144.30;81.77;85277.16;5031479;28;20645;-76
2023/10/27 07:27:00;;;;;;;34.70;16.60;;;;;;;-144.30;81.94;85332.81;5030802;28;20193;-77
2023/10/27 07:29:27;;;;;;;43.58;14.65;;;;;;;-144.30;81.23;85301.00;5031240;28;20275;-77
2023/10/27 07:31:54;;;;;;;29.80;13.18;;;;;;;-144.30;81.31;85287.09;5030641;28;20674;-76
2023/10/27 07:34:24;;;;;;;35.97;12.85;;;;;;;-144.30;81.19;85316.91;5030592;28;20251;-80
2023/10/27 07:36:52;;;;;;;20.55;11.48;;;;;;;-144.30;81.06;85257.28;5030445;28;20260;-77
2023/10/27 07:39:19;;;;;;;37.00;12.23;;;;;;;-144.30;80.63;85253.31;5030408;28;20194;-78
2023/10/27 07:41:48;;;;;;;23.02;11.70;;;;;;;-144.30;79.71;85233.44;5030631;28;20660;-78
2023/10/27 07:44:18;;;;;;;32.53;10.98;;;;;;;-144.30;79.55;85197.66;5031453;28;20197;-78
2023/10/27 07:46:45;;;;;;;36.60;11.30;;;;;;;-144.30;79.68;85235.41;5031275;28;20225;-79
2023/10/27 07:49:12;;;;;;;26.25;10.52;;;;;;;-144.30;78.83;85215.53;5030698;28;20197;-80
2023/10/27 07:51:39;;;;;;;17.23;10.93;;;;;;;-144.30;78.88;84847.81;5031213;28;20201;-79
2023/10/27 07:54:06;;;;;;;25.92;11.15;;;;;;;-144.30;78.77;85217.53;5031314;28;20255;-79
2023/10/27 07:56:33;;;;;;;28.75;11.60;;;;;;;-144.30;79.20;85143.97;5031135;28;20196;-78
2023/10/27 07:59:02;;;;;;;25.95;11.60;;;;;;;-144.30;79.33;85201.63;5030901;28;20204;-79
2023/10/27 08:01:29;;;;;;;15.00;10.25;;;;;;;-144.30;78.67;85195.66;5030826;28;20201;-78
2023/10/27 08:03:56;;;;;;;27.67;11.20;;;;;;;-144.30;78.88;85193.66;5030805;28;20197;-78
2023/10/27 08:06:23;;;;;;;17.35;10.13;;;;;;;-144.30;79.20;85219.50;5030612;28;20201;-78
2023/10/27 08:08:50;;;;;;;18.30;9.40;;;;;;;-144.30;79.67;85215.53;5030725;28;20665;-78
2023/10/27 08:11:17;;;;;;;23.83;9.88;;;;;;;-144.30;79.32;85253.31;5030403;28;20197;-78
2023/10/27 08:13:44;;;;;;;31.30;11.20;;;;;;;-144.30;79.81;85233.44;5030172;28;20197;-78
2023/10/27 08:16:14;;;;;;;20.75;10.02;;;;;;;-144.30;80.07;85245.34;5030481;28;20221;-77
2023/10/27 08:18:41;;;;;;;24.23;10.18;;;;;;;-144.30;79.79;85227.47;5027159;28;20219;-78
2023/10/27 08:21:07;;;;;;;25.77;10.57;;;;;;;-144.30;79.80;85229.44;5036990;28;20219;-78
2023/10/27 08:23:34;;;;;;;18.15;10.20;;;;;;;-144.30;80.41;85249.34;5049939;28;20283;-78
2023/10/27 08:26:01;;;;;;;27.23;10.60;;;;;;;-144.30;80.96;85273.19;5049828;28;20250;-78
2023/10/27 08:28:29;;;;;;;23.15;10.07;;;;;;;-144.30;80.48;85249.34;5046784;28;20665;-78
2023/10/27 08:30:57;;;;;;;26.58;9.80;;;;;;;-144.30;79.92;85215.53;5031197;28;20209;-79
2023/10/27 08:33:26;;;;;;;18.80;9.40;;;;;;;-144.30;79.90;85229.44;5040211;28;20664;-79
2023/10/27 08:35:53;;;;;;;23.52;10.82;;;;;;;-144.30;79.44;85219.50;5029233;28;20233;-77
2023/10/27 08:38:20;;;;;;;14.25;9.20;;;;;;;-144.30;78.79;85205.59;5029345;28;20272;-79
2023/10/27 08:40:47;;;;;;;23.48;9.70;;;;;;;-144.30;78.68;85199.63;5029832;28;20203;-78
2023/10/27 08:43:14;;;;;;;20.00;9.50;;;;;;;-144.30;78.57;85173.78;5028232;28;20189;-78
2023/10/27 08:45:43;;;;;;;24.80;9.82;;;;;;;-144.30;78.00;85159.88;5029972;28;20669;-78
2023/10/27 08:48:10;;;;;;;20.30;9.27;;;;;;;-144.30;77.48;85175.78;5029477;28;20189;-79
2023/10/27 08:50:40;;;;;;;23.23;9.18;;;;;;;-144.30;77.14;85149.94;5029747;28;20201;-77
2023/10/27 08:53:07;;;;;;;19.92;9.32;;;;;;;-144.30;77.35;85134.03;5030003;28;20194;-78
2023/10/27 08:55:34;;;;;;;27.58;9.77;;;;;;;-144.30;77.67;85161.88;5029886;28;20221;-77
2023/10/27 08:58:01;;;;;;;21.40;9.85;;;;;;;-144.30;77.39;85153.91;5027342;28;20200;-77
2023/10/27 09:00:28;;;;;;;24.15;11.05;;;;;;;-144.30;77.61;85181.75;5027798;28;20217;-79
2023/10/27 09:02:55;;;;;;;16.83;9.75;;;;;;;-144.30;77.16;85173.78;5039191;28;20238;-77
2023/10/27 09:05:24;;;;;;;22.08;10.10;;;;;;;-144.30;76.73;85138.00;5049742;28;20597;-76
2023/10/27 09:07:53;;;;;;;24.70;10.75;;;;;;;-144.30;76.46;85104.22;5030558;28;20673;-76
2023/10/27 09:10:19;;;;;;;23.35;10.38;;;;;;;-144.30;75.88;85084.34;5029184;28;20198;-77
2023/10/27 09:12:47;;;;;;;34.35;10.77;;;;;;;-144.30;75.52;85038.63;5029189;28;20201;-79
2023/10/27 09:15:14;;;;;;;19.23;9.93;;;;;;;-144.30;75.48;85014.78;5029663;28;20233;-84
2023/10/27 09:17:50;;;;;;;18.95;9.30;;;;;;;-144.30;73.97;84923.34;5030424;28;20413;-85
2023/10/27 09:20:17;;;;;;;24.70;9.95;;;;;;;-144.30;73.86;84979.00;5029176;28;20197;-83
2023/10/27 09:22:57;;;;;;;19.55;9.85;;;;;;;-144.30;73.51;84979.00;5029149;28;20224;-83
2023/10/27 09:25:29;;;;;;;16.15;9.13;;;;;;;-144.30;72.82;84943.22;5028218;28;20225;-85
2023/10/27 09:27:58;;;;;;;21.60;9.48;;;;;;;-144.30;71.89;84931.28;5027052;28;20255;-83
2023/10/27 09:30:28;;;;;;;23.17;10.23;;;;;;;-144.30;71.63;84871.66;5028898;28;20931;-84
2023/10/27 09:32:56;;;;;;;20.40;9.05;;;;;;;-144.30;70.90;84907.44;5026871;28;20200;-83
2023/10/27 09:35:27;;;;;;;21.80;8.88;;;;;;;-144.30;70.64;84885.56;5029667;28;20294;-82
2023/10/27 09:37:55;;;;;;;20.70;8.52;;;;;;;-144.30;70.29;84871.66;5026974;28;20255;-75
2023/10/27 09:40:23;;;;;;;25.98;8.68;;;;;;;-144.30;69.83;84823.94;5028802;28;20251;-75
2023/10/27 09:42:54;;;;;;;19.42;8.75;;;;;;;-144.30;69.41;84780.22;5009664;28;20205;-75
2023/10/27 09:45:27;;;;;;;17.15;7.90;;;;;;;-144.30;69.25;84804.06;5009657;28;20202;-73
2023/10/27 09:48:02;;;;;;;12.98;7.63;;;;;;;-144.30;69.17;84816.00;5019094;28;20231;-75
2023/10/27 09:50:30;;;;;;;17.17;7.28;;;;;;;-144.30;69.13;84819.97;5026452;28;20274;-74
2023/10/27 09:52:59;;;;;;;12.40;7.32;;;;;;;-144.30;69.11;84831.91;5031337;28;20201;-75
2023/10/27 09:55:28;;;;;;;24.10;8.07;;;;;;;-144.30;68.74;85038.63;5032997;28;20255;-76
2023/10/27 09:57:55;;;;;;;13.75;6.93;;;;;;;-144.30;68.71;84788.19;5032988;28;20670;-76
2023/10/27 10:00:28;;;;;;;20.02;7.43;;;;;;;-144.30;68.43;84798.13;5032811;28;20229;-75
2023/10/27 10:02:56;;;;;;;19.20;10.90;;;;;;;-144.30;68.81;84774.25;5032670;28;20201;-75
2023/10/27 10:05:24;;;;;;;15.85;7.47;;;;;;;-144.30;68.46;84788.19;5032772;28;20581;-75
2023/10/27 10:07:56;;;;;;;15.52;6.97;;;;;;;-144.30;68.31;85020.72;5032674;28;20680;-74
2023/10/27 10:10:30;;;;;;;15.23;6.90;;;;;;;-144.30;68.01;84712.66;5032773;28;20197;-75
2023/10/27 10:13:04;;;;;;;25.63;7.25;;;;;;;-144.30;68.16;84798.13;5033465;28;20625;-75
2023/10/27 10:15:32;;;;;;;14.02;7.03;;;;;;;-144.30;68.18;84790.16;5032757;28;20225;-75
2023/10/27 10:17:59;;;;;;;13.23;7.18;;;;;;;-144.30;68.46;84746.44;5032747;28;20267;-75
2023/10/27 10:20:57;;;;;;;16.48;6.88;;;;;;;-144.30;68.10;84728.56;5032892;28;20629;-75
2023/10/27 10:23:25;;;;;;;21.05;7.32;;;;;;;-144.30;67.79;84756.38;5032189;28;20621;-75
2023/10/27 10:25:55;;;;;;;15.32;7.10;;;;;;;-144.30;67.76;84688.81;5032475;28;20285;-75
2023/10/27 10:28:27;;;;;;;16.17;7.63;;;;;;;-144.30;67.41;84710.66;5031929;28;20210;-76
2023/10/27 10:31:25;;;;;;;13.60;7.07;;;;;;;-144.30;67.42;84720.59;5029945;28;20205;-74
2023/10/27 10:34:10;;;;;;;25.20;7.70;;;;;;;-144.30;67.22;85092.28;5028392;28;20582;-75
2023/10/27 10:36:37;;;;;;;25.80;7.85;;;;;;;-144.30;67.16;84674.88;5028686;28;20228;-74
2023/10/27 10:39:04;;;;;;;10.57;6.25;;;;;;;-144.30;66.66;84686.81;5032483;28;20200;-74
2023/10/27 10:42:01;;;;;;;22.35;7.07;;;;;;;-144.30;66.80;84696.75;5031791;28;20197;-74
2023/10/27 10:44:32;;;;;;;16.35;7.90;;;;;;;-144.30;66.62;84696.75;5031794;28;20200;-74
2023/10/27 10:47:05;;;;;;;16.30;7.28;;;;;;;-144.30;66.75;84629.19;5032067;28;20196;-75
2023/10/27 10:49:32;;;;;;;18.77;6.88;;;;;;;-144.30;66.25;84684.81;5032103;28;20229;-75
2023/10/27 10:52:01;;;;;;;17.73;6.43;;;;;;;-144.30;66.00;84591.41;5032208;28;20197;-75
2023/10/27 10:54:33;;;;;;;15.38;5.47;;;;;;;-144.30;65.76;84637.13;5032446;28;20688;-75
2023/10/27 10:57:09;;;;;;;12.13;5.90;;;;;;;-144.30;65.51;84629.19;5031891;28;20316;-75
2023/10/27 10:59:37;;;;;;;10.00;5.80;;;;;;;-144.30;65.35;84446.31;5031818;28;20200;-75
2023/10/27 11:02:05;;;;;;;31.70;13.65;;;;;;;-144.30;65.32;84631.16;5031051;28;20186;-75
2023/10/27 11:04:34;;;;;;;13.63;7.97;;;;;;;-144.30;65.23;84609.31;5031272;28;20252;-75
2023/10/27 11:07:03;;;;;;;16.20;6.20;;;;;;;-144.30;65.07;84603.34;5032418;28;20280;-74
2023/10/27 11:09:32;;;;;;;12.73;7.75;;;;;;;-144.30;64.56;84589.41;5031683;28;20602;-73